sensor_id;sensor_type;location;lat;lon;timestamp;P1;durP1;ratioP1;P2;durP2;ratioP2
33357;SDS011;19717;42.614;23.418;2023-07-29T00:02:08;0.63;;;0.60;;
33357;SDS011;19717;42.614;23.418;2023-07-29T00:04:34;0.70;;;0.70;;
33357;SDS011;19717;42.614;23.418;2023-07-29T00:07:00;0.60;;;0.60;;
33357;SDS011;19717;42.614;23.418;2023-07-29T00:09:26;0.70;;;0.70;;
33357;SDS011;19717;42.614;23.418;2023-07-29T00:11:52;0.70;;;0.70;;
33357;SDS011;19717;42.614;23.418;2023-07-29T00:14:18;0.60;;;0.60;;
33357;SDS011;19717;42.614;23.418;2023-07-29T00:16:44;0.65;;;0.65;;
33357;SDS011;19717;42.614;23.418;2023-07-29T00:19:10;0.70;;;0.70;;
33357;SDS011;19717;42.614;23.418;2023-07-29T00:21:36;0.60;;;0.60;;
33357;SDS011;19717;42.614;23.418;2023-07-29T00:24:02;0.70;;;0.70;;
33357;SDS011;19717;42.614;23.418;2023-07-29T00:26:28;0.60;;;0.60;;
33357;SDS011;19717;42.614;23.418;2023-07-29T00:28:55;0.93;;;0.75;;
33357;SDS011;19717;42.614;23.418;2023-07-29T00:31:21;1.00;;;0.85;;
33357;SDS011;19717;42.614;23.418;2023-07-29T00:33:47;0.85;;;0.82;;
33357;SDS011;19717;42.614;23.418;2023-07-29T00:36:13;0.80;;;0.80;;
33357;SDS011;19717;42.614;23.418;2023-07-29T00:38:39;0.60;;;0.60;;
33357;SDS011;19717;42.614;23.418;2023-07-29T00:41:05;0.80;;;0.80;;
33357;SDS011;19717;42.614;23.418;2023-07-29T00:43:31;0.70;;;0.70;;
33357;SDS011;19717;42.614;23.418;2023-07-29T00:45:57;0.70;;;0.70;;
33357;SDS011;19717;42.614;23.418;2023-07-29T00:48:24;0.80;;;0.80;;
33357;SDS011;19717;42.614;23.418;2023-07-29T00:50:50;0.70;;;0.70;;
33357;SDS011;19717;42.614;23.418;2023-07-29T00:53:16;0.70;;;0.70;;
33357;SDS011;19717;42.614;23.418;2023-07-29T00:55:42;0.70;;;0.70;;
33357;SDS011;19717;42.614;23.418;2023-07-29T00:58:09;0.80;;;0.80;;
33357;SDS011;19717;42.614;23.418;2023-07-29T01:00:35;0.70;;;0.70;;
33357;SDS011;19717;42.614;23.418;2023-07-29T01:03:01;0.70;;;0.70;;
33357;SDS011;19717;42.614;23.418;2023-07-29T01:05:30;0.60;;;0.60;;
33357;SDS011;19717;42.614;23.418;2023-07-29T01:10:34;0.60;;;0.60;;
33357;SDS011;19717;42.614;23.418;2023-07-29T01:13:05;0.80;;;0.80;;
33357;SDS011;19717;42.614;23.418;2023-07-29T01:15:41;0.82;;;0.82;;
33357;SDS011;19717;42.614;23.418;2023-07-29T01:18:10;0.70;;;0.70;;
33357;SDS011;19717;42.614;23.418;2023-07-29T01:20:38;0.80;;;0.80;;
33357;SDS011;19717;42.614;23.418;2023-07-29T01:23:05;0.80;;;0.80;;
33357;SDS011;19717;42.614;23.418;2023-07-29T01:25:31;0.85;;;0.85;;
33357;SDS011;19717;42.614;23.418;2023-07-29T01:27:57;0.80;;;0.80;;
33357;SDS011;19717;42.614;23.418;2023-07-29T01:30:25;0.70;;;0.70;;
33357;SDS011;19717;42.614;23.418;2023-07-29T01:32:59;0.70;;;0.70;;
33357;SDS011;19717;42.614;23.418;2023-07-29T01:37:55;0.80;;;0.80;;
33357;SDS011;19717;42.614;23.418;2023-07-29T01:40:23;0.70;;;0.70;;
33357;SDS011;19717;42.614;23.418;2023-07-29T01:42:52;0.70;;;0.70;;
33357;SDS011;19717;42.614;23.418;2023-07-29T01:45:18;1.02;;;0.70;;
33357;SDS011;19717;42.614;23.418;2023-07-29T01:47:46;0.70;;;0.70;;
33357;SDS011;19717;42.614;23.418;2023-07-29T01:50:14;0.70;;;0.70;;
33357;SDS011;19717;42.614;23.418;2023-07-29T01:52:40;0.60;;;0.60;;
33357;SDS011;19717;42.614;23.418;2023-07-29T01:55:06;0.80;;;0.80;;
33357;SDS011;19717;42.614;23.418;2023-07-29T01:57:32;0.90;;;0.70;;
33357;SDS011;19717;42.614;23.418;2023-07-29T01:59:58;0.93;;;0.75;;
33357;SDS011;19717;42.614;23.418;2023-07-29T02:02:24;0.70;;;0.70;;
33357;SDS011;19717;42.614;23.418;2023-07-29T02:04:50;0.60;;;0.60;;
33357;SDS011;19717;42.614;23.418;2023-07-29T02:07:18;0.75;;;0.75;;
33357;SDS011;19717;42.614;23.418;2023-07-29T02:09:44;0.70;;;0.70;;
33357;SDS011;19717;42.614;23.418;2023-07-29T02:12:10;0.65;;;0.65;;
33357;SDS011;19717;42.614;23.418;2023-07-29T02:14:36;0.63;;;0.63;;
33357;SDS011;19717;42.614;23.418;2023-07-29T02:17:02;0.98;;;0.98;;
33357;SDS011;19717;42.614;23.418;2023-07-29T02:19:28;0.70;;;0.70;;
33357;SDS011;19717;42.614;23.418;2023-07-29T02:21:54;0.70;;;0.70;;
33357;SDS011;19717;42.614;23.418;2023-07-29T02:24:20;0.70;;;0.70;;
33357;SDS011;19717;42.614;23.418;2023-07-29T02:26:46;0.70;;;0.70;;
33357;SDS011;19717;42.614;23.418;2023-07-29T02:29:12;0.80;;;0.80;;
33357;SDS011;19717;42.614;23.418;2023-07-29T02:31:38;0.68;;;0.68;;
33357;SDS011;19717;42.614;23.418;2023-07-29T02:34:05;0.80;;;0.80;;
33357;SDS011;19717;42.614;23.418;2023-07-29T02:36:30;1.30;;;0.90;;
33357;SDS011;19717;42.614;23.418;2023-07-29T02:38:56;0.80;;;0.80;;
33357;SDS011;19717;42.614;23.418;2023-07-29T02:41:23;0.80;;;0.80;;
33357;SDS011;19717;42.614;23.418;2023-07-29T02:43:49;1.00;;;0.90;;
33357;SDS011;19717;42.614;23.418;2023-07-29T02:46:15;1.63;;;0.90;;
33357;SDS011;19717;42.614;23.418;2023-07-29T02:48:42;0.70;;;0.70;;
33357;SDS011;19717;42.614;23.418;2023-07-29T02:51:08;0.77;;;0.77;;
33357;SDS011;19717;42.614;23.418;2023-07-29T02:53:34;0.70;;;0.70;;
33357;SDS011;19717;42.614;23.418;2023-07-29T02:56:01;0.75;;;0.75;;
33357;SDS011;19717;42.614;23.418;2023-07-29T02:58:28;0.60;;;0.60;;
33357;SDS011;19717;42.614;23.418;2023-07-29T03:00:59;0.80;;;0.80;;
33357;SDS011;19717;42.614;23.418;2023-07-29T03:03:26;0.80;;;0.80;;
33357;SDS011;19717;42.614;23.418;2023-07-29T03:05:57;0.70;;;0.70;;
33357;SDS011;19717;42.614;23.418;2023-07-29T03:08:23;0.80;;;0.80;;
33357;SDS011;19717;42.614;23.418;2023-07-29T03:10:49;0.70;;;0.70;;
33357;SDS011;19717;42.614;23.418;2023-07-29T03:13:15;0.80;;;0.80;;
33357;SDS011;19717;42.614;23.418;2023-07-29T03:15:41;0.80;;;0.80;;
33357;SDS011;19717;42.614;23.418;2023-07-29T03:18:07;1.05;;;0.77;;
33357;SDS011;19717;42.614;23.418;2023-07-29T03:20:33;0.70;;;0.70;;
33357;SDS011;19717;42.614;23.418;2023-07-29T03:22:59;0.82;;;0.82;;
33357;SDS011;19717;42.614;23.418;2023-07-29T03:25:24;0.77;;;0.77;;
33357;SDS011;19717;42.614;23.418;2023-07-29T03:27:50;0.70;;;0.70;;
33357;SDS011;19717;42.614;23.418;2023-07-29T03:30:20;0.88;;;0.88;;
33357;SDS011;19717;42.614;23.418;2023-07-29T03:32:46;0.80;;;0.80;;
33357;SDS011;19717;42.614;23.418;2023-07-29T03:35:13;0.68;;;0.68;;
33357;SDS011;19717;42.614;23.418;2023-07-29T03:37:39;0.60;;;0.60;;
33357;SDS011;19717;42.614;23.418;2023-07-29T03:40:05;0.77;;;0.77;;
33357;SDS011;19717;42.614;23.418;2023-07-29T03:42:32;0.80;;;0.80;;
33357;SDS011;19717;42.614;23.418;2023-07-29T03:44:58;1.38;;;0.90;;
33357;SDS011;19717;42.614;23.418;2023-07-29T03:47:24;0.80;;;0.80;;
33357;SDS011;19717;42.614;23.418;2023-07-29T03:49:50;0.70;;;0.70;;
33357;SDS011;19717;42.614;23.418;2023-07-29T03:52:16;1.02;;;0.70;;
33357;SDS011;19717;42.614;23.418;2023-07-29T03:54:42;1.15;;;0.85;;
33357;SDS011;19717;42.614;23.418;2023-07-29T03:57:08;0.80;;;0.80;;
33357;SDS011;19717;42.614;23.418;2023-07-29T03:59:33;0.85;;;0.85;;
33357;SDS011;19717;42.614;23.418;2023-07-29T04:01:59;0.80;;;0.80;;
33357;SDS011;19717;42.614;23.418;2023-07-29T04:04:25;2.65;;;1.25;;
33357;SDS011;19717;42.614;23.418;2023-07-29T04:06:51;1.00;;;0.90;;
33357;SDS011;19717;42.614;23.418;2023-07-29T04:09:17;0.90;;;0.90;;
33357;SDS011;19717;42.614;23.418;2023-07-29T04:11:43;0.80;;;0.80;;
33357;SDS011;19717;42.614;23.418;2023-07-29T04:14:10;1.08;;;0.70;;
33357;SDS011;19717;42.614;23.418;2023-07-29T04:16:36;0.88;;;0.88;;
33357;SDS011;19717;42.614;23.418;2023-07-29T04:19:02;0.90;;;0.90;;
33357;SDS011;19717;42.614;23.418;2023-07-29T04:21:28;0.70;;;0.70;;
33357;SDS011;19717;42.614;23.418;2023-07-29T04:23:54;0.82;;;0.82;;
33357;SDS011;19717;42.614;23.418;2023-07-29T04:26:20;0.88;;;0.88;;
33357;SDS011;19717;42.614;23.418;2023-07-29T04:28:46;1.02;;;1.00;;
33357;SDS011;19717;42.614;23.418;2023-07-29T04:31:12;0.90;;;0.90;;
33357;SDS011;19717;42.614;23.418;2023-07-29T04:33:38;0.88;;;0.88;;
33357;SDS011;19717;42.614;23.418;2023-07-29T04:36:04;1.30;;;0.90;;
33357;SDS011;19717;42.614;23.418;2023-07-29T04:38:31;1.75;;;0.90;;
33357;SDS011;19717;42.614;23.418;2023-07-29T04:41:00;0.80;;;0.80;;
33357;SDS011;19717;42.614;23.418;2023-07-29T04:43:30;1.48;;;0.93;;
33357;SDS011;19717;42.614;23.418;2023-07-29T04:45:56;1.10;;;1.00;;
33357;SDS011;19717;42.614;23.418;2023-07-29T04:48:22;0.82;;;0.82;;
33357;SDS011;19717;42.614;23.418;2023-07-29T04:50:48;0.90;;;0.90;;
33357;SDS011;19717;42.614;23.418;2023-07-29T04:53:14;1.20;;;1.00;;
33357;SDS011;19717;42.614;23.418;2023-07-29T04:55:44;1.02;;;1.00;;
33357;SDS011;19717;42.614;23.418;2023-07-29T04:58:10;0.90;;;0.90;;
33357;SDS011;19717;42.614;23.418;2023-07-29T05:00:36;1.75;;;1.00;;
33357;SDS011;19717;42.614;23.418;2023-07-29T05:03:02;0.90;;;0.90;;
33357;SDS011;19717;42.614;23.418;2023-07-29T05:05:28;1.00;;;0.95;;
33357;SDS011;19717;42.614;23.418;2023-07-29T05:07:54;0.90;;;0.90;;
33357;SDS011;19717;42.614;23.418;2023-07-29T05:10:20;1.02;;;0.73;;
33357;SDS011;19717;42.614;23.418;2023-07-29T05:12:46;2.90;;;0.90;;
33357;SDS011;19717;42.614;23.418;2023-07-29T05:15:12;0.90;;;0.90;;
33357;SDS011;19717;42.614;23.418;2023-07-29T05:17:38;1.92;;;0.90;;
33357;SDS011;19717;42.614;23.418;2023-07-29T05:20:05;1.30;;;0.90;;
33357;SDS011;19717;42.614;23.418;2023-07-29T05:22:34;0.80;;;0.80;;
33357;SDS011;19717;42.614;23.418;2023-07-29T05:25:00;1.35;;;0.70;;
33357;SDS011;19717;42.614;23.418;2023-07-29T05:27:26;0.82;;;0.82;;
33357;SDS011;19717;42.614;23.418;2023-07-29T05:29:52;0.80;;;0.70;;
33357;SDS011;19717;42.614;23.418;2023-07-29T05:32:18;0.80;;;0.80;;
33357;SDS011;19717;42.614;23.418;2023-07-29T05:34:44;0.77;;;0.77;;
33357;SDS011;19717;42.614;23.418;2023-07-29T05:37:10;0.70;;;0.70;;
33357;SDS011;19717;42.614;23.418;2023-07-29T05:39:36;0.70;;;0.70;;
33357;SDS011;19717;42.614;23.418;2023-07-29T05:42:02;0.70;;;0.70;;
33357;SDS011;19717;42.614;23.418;2023-07-29T05:44:28;0.63;;;0.63;;
33357;SDS011;19717;42.614;23.418;2023-07-29T05:46:57;0.60;;;0.60;;
33357;SDS011;19717;42.614;23.418;2023-07-29T05:49:23;0.60;;;0.60;;
33357;SDS011;19717;42.614;23.418;2023-07-29T05:51:49;1.20;;;0.80;;
33357;SDS011;19717;42.614;23.418;2023-07-29T05:54:17;0.70;;;0.70;;
33357;SDS011;19717;42.614;23.418;2023-07-29T05:56:44;0.68;;;0.68;;
33357;SDS011;19717;42.614;23.418;2023-07-29T05:59:10;0.70;;;0.70;;
33357;SDS011;19717;42.614;23.418;2023-07-29T06:01:36;0.70;;;0.70;;
33357;SDS011;19717;42.614;23.418;2023-07-29T06:04:02;0.85;;;0.80;;
33357;SDS011;19717;42.614;23.418;2023-07-29T06:06:27;0.70;;;0.70;;
33357;SDS011;19717;42.614;23.418;2023-07-29T06:08:53;0.70;;;0.70;;
33357;SDS011;19717;42.614;23.418;2023-07-29T06:11:19;0.70;;;0.70;;
33357;SDS011;19717;42.614;23.418;2023-07-29T06:13:46;0.60;;;0.60;;
33357;SDS011;19717;42.614;23.418;2023-07-29T06:16:13;0.88;;;0.85;;
33357;SDS011;19717;42.614;23.418;2023-07-29T06:18:39;0.80;;;0.80;;
33357;SDS011;19717;42.614;23.418;2023-07-29T06:21:05;0.80;;;0.80;;
33357;SDS011;19717;42.614;23.418;2023-07-29T06:23:33;0.90;;;0.90;;
33357;SDS011;19717;42.614;23.418;2023-07-29T06:25:59;0.80;;;0.80;;
33357;SDS011;19717;42.614;23.418;2023-07-29T06:28:28;1.00;;;0.70;;
33357;SDS011;19717;42.614;23.418;2023-07-29T06:30:54;1.73;;;0.73;;
33357;SDS011;19717;42.614;23.418;2023-07-29T06:33:20;0.80;;;0.80;;
33357;SDS011;19717;42.614;23.418;2023-07-29T06:35:46;0.70;;;0.70;;
33357;SDS011;19717;42.614;23.418;2023-07-29T06:38:12;1.08;;;0.70;;
33357;SDS011;19717;42.614;23.418;2023-07-29T06:40:38;0.77;;;0.70;;
33357;SDS011;19717;42.614;23.418;2023-07-29T06:43:04;0.90;;;0.70;;
33357;SDS011;19717;42.614;23.418;2023-07-29T06:45:30;0.73;;;0.73;;
33357;SDS011;19717;42.614;23.418;2023-07-29T06:47:56;0.60;;;0.60;;
33357;SDS011;19717;42.614;23.418;2023-07-29T06:50:22;0.65;;;0.60;;
33357;SDS011;19717;42.614;23.418;2023-07-29T06:52:48;1.25;;;1.05;;
33357;SDS011;19717;42.614;23.418;2023-07-29T06:55:14;1.30;;;0.90;;
33357;SDS011;19717;42.614;23.418;2023-07-29T06:57:40;1.33;;;0.90;;
33357;SDS011;19717;42.614;23.418;2023-07-29T07:00:06;0.70;;;0.70;;
33357;SDS011;19717;42.614;23.418;2023-07-29T07:02:34;0.68;;;0.68;;
33357;SDS011;19717;42.614;23.418;2023-07-29T07:05:00;0.90;;;0.90;;
33357;SDS011;19717;42.614;23.418;2023-07-29T07:07:26;0.75;;;0.75;;
33357;SDS011;19717;42.614;23.418;2023-07-29T07:09:52;0.68;;;0.60;;
33357;SDS011;19717;42.614;23.418;2023-07-29T07:12:18;0.60;;;0.60;;
33357;SDS011;19717;42.614;23.418;2023-07-29T07:14:44;0.60;;;0.60;;
33357;SDS011;19717;42.614;23.418;2023-07-29T07:17:10;0.80;;;0.80;;
33357;SDS011;19717;42.614;23.418;2023-07-29T07:19:36;0.60;;;0.60;;
33357;SDS011;19717;42.614;23.418;2023-07-29T07:22:03;1.35;;;0.80;;
33357;SDS011;19717;42.614;23.418;2023-07-29T07:24:29;2.05;;;0.80;;
33357;SDS011;19717;42.614;23.418;2023-07-29T07:26:55;0.70;;;0.70;;
33357;SDS011;19717;42.614;23.418;2023-07-29T07:29:21;0.60;;;0.60;;
33357;SDS011;19717;42.614;23.418;2023-07-29T07:31:51;0.80;;;0.80;;
33357;SDS011;19717;42.614;23.418;2023-07-29T07:34:21;0.60;;;0.60;;
33357;SDS011;19717;42.614;23.418;2023-07-29T07:36:47;0.70;;;0.70;;
33357;SDS011;19717;42.614;23.418;2023-07-29T07:39:13;0.63;;;0.63;;
33357;SDS011;19717;42.614;23.418;2023-07-29T07:41:39;0.60;;;0.60;;
33357;SDS011;19717;42.614;23.418;2023-07-29T07:44:05;0.70;;;0.70;;
33357;SDS011;19717;42.614;23.418;2023-07-29T07:46:31;0.60;;;0.60;;
33357;SDS011;19717;42.614;23.418;2023-07-29T07:48:58;0.63;;;0.60;;
33357;SDS011;19717;42.614;23.418;2023-07-29T07:51:24;0.70;;;0.70;;
33357;SDS011;19717;42.614;23.418;2023-07-29T07:53:50;0.70;;;0.70;;
33357;SDS011;19717;42.614;23.418;2023-07-29T07:56:16;0.60;;;0.60;;
33357;SDS011;19717;42.614;23.418;2023-07-29T07:58:42;0.60;;;0.60;;
33357;SDS011;19717;42.614;23.418;2023-07-29T08:01:08;0.68;;;0.68;;
33357;SDS011;19717;42.614;23.418;2023-07-29T08:03:35;0.60;;;0.60;;
33357;SDS011;19717;42.614;23.418;2023-07-29T08:06:01;0.82;;;0.50;;
33357;SDS011;19717;42.614;23.418;2023-07-29T08:08:28;0.50;;;0.50;;
33357;SDS011;19717;42.614;23.418;2023-07-29T08:10:54;0.52;;;0.52;;
33357;SDS011;19717;42.614;23.418;2023-07-29T08:13:20;0.95;;;0.68;;
33357;SDS011;19717;42.614;23.418;2023-07-29T08:15:47;0.60;;;0.60;;
33357;SDS011;19717;42.614;23.418;2023-07-29T08:18:13;0.60;;;0.60;;
33357;SDS011;19717;42.614;23.418;2023-07-29T08:20:39;0.60;;;0.60;;
33357;SDS011;19717;42.614;23.418;2023-07-29T08:23:05;0.50;;;0.50;;
33357;SDS011;19717;42.614;23.418;2023-07-29T08:25:31;0.57;;;0.57;;
33357;SDS011;19717;42.614;23.418;2023-07-29T08:27:57;1.48;;;0.60;;
33357;SDS011;19717;42.614;23.418;2023-07-29T08:30:23;0.50;;;0.50;;
33357;SDS011;19717;42.614;23.418;2023-07-29T08:32:49;0.60;;;0.60;;
33357;SDS011;19717;42.614;23.418;2023-07-29T08:35:15;0.73;;;0.73;;
33357;SDS011;19717;42.614;23.418;2023-07-29T08:37:41;0.50;;;0.50;;
33357;SDS011;19717;42.614;23.418;2023-07-29T08:40:07;0.57;;;0.57;;
33357;SDS011;19717;42.614;23.418;2023-07-29T08:42:33;0.50;;;0.50;;
33357;SDS011;19717;42.614;23.418;2023-07-29T08:45:01;0.50;;;0.50;;
33357;SDS011;19717;42.614;23.418;2023-07-29T08:47:32;0.70;;;0.70;;
33357;SDS011;19717;42.614;23.418;2023-07-29T08:49:58;0.73;;;0.70;;
33357;SDS011;19717;42.614;23.418;2023-07-29T08:52:25;1.45;;;0.52;;
33357;SDS011;19717;42.614;23.418;2023-07-29T08:54:51;0.40;;;0.40;;
33357;SDS011;19717;42.614;23.418;2023-07-29T08:57:18;0.50;;;0.50;;
33357;SDS011;19717;42.614;23.418;2023-07-29T08:59:45;0.40;;;0.40;;
33357;SDS011;19717;42.614;23.418;2023-07-29T09:02:11;0.40;;;0.40;;
33357;SDS011;19717;42.614;23.418;2023-07-29T09:04:37;0.77;;;0.40;;
33357;SDS011;19717;42.614;23.418;2023-07-29T09:07:04;0.50;;;0.50;;
33357;SDS011;19717;42.614;23.418;2023-07-29T09:09:32;0.47;;;0.47;;
33357;SDS011;19717;42.614;23.418;2023-07-29T09:11:58;0.80;;;0.60;;
33357;SDS011;19717;42.614;23.418;2023-07-29T09:14:24;0.40;;;0.40;;
33357;SDS011;19717;42.614;23.418;2023-07-29T09:16:50;0.40;;;0.40;;
33357;SDS011;19717;42.614;23.418;2023-07-29T09:19:16;0.40;;;0.40;;
33357;SDS011;19717;42.614;23.418;2023-07-29T09:21:45;0.70;;;0.40;;
33357;SDS011;19717;42.614;23.418;2023-07-29T09:24:12;0.40;;;0.40;;
33357;SDS011;19717;42.614;23.418;2023-07-29T09:26:38;0.73;;;0.40;;
33357;SDS011;19717;42.614;23.418;2023-07-29T09:29:04;0.70;;;0.40;;
33357;SDS011;19717;42.614;23.418;2023-07-29T09:31:32;0.40;;;0.40;;
33357;SDS011;19717;42.614;23.418;2023-07-29T09:33:59;0.52;;;0.50;;
33357;SDS011;19717;42.614;23.418;2023-07-29T09:36:25;0.40;;;0.40;;
33357;SDS011;19717;42.614;23.418;2023-07-29T09:38:52;0.40;;;0.40;;
33357;SDS011;19717;42.614;23.418;2023-07-29T09:41:21;0.60;;;0.43;;
33357;SDS011;19717;42.614;23.418;2023-07-29T09:43:48;0.40;;;0.40;;
33357;SDS011;19717;42.614;23.418;2023-07-29T09:46:20;0.40;;;0.40;;
33357;SDS011;19717;42.614;23.418;2023-07-29T09:48:48;0.73;;;0.40;;
33357;SDS011;19717;42.614;23.418;2023-07-29T09:51:15;0.40;;;0.40;;
33357;SDS011;19717;42.614;23.418;2023-07-29T09:53:42;1.00;;;0.40;;
33357;SDS011;19717;42.614;23.418;2023-07-29T09:56:09;0.40;;;0.40;;
33357;SDS011;19717;42.614;23.418;2023-07-29T09:58:35;0.40;;;0.40;;
33357;SDS011;19717;42.614;23.418;2023-07-29T10:01:03;0.40;;;0.40;;
33357;SDS011;19717;42.614;23.418;2023-07-29T10:03:29;0.73;;;0.50;;
33357;SDS011;19717;42.614;23.418;2023-07-29T10:05:59;0.40;;;0.40;;
33357;SDS011;19717;42.614;23.418;2023-07-29T10:08:25;0.40;;;0.40;;
33357;SDS011;19717;42.614;23.418;2023-07-29T10:10:51;0.40;;;0.40;;
33357;SDS011;19717;42.614;23.418;2023-07-29T10:13:17;0.40;;;0.40;;
33357;SDS011;19717;42.614;23.418;2023-07-29T10:15:44;0.40;;;0.40;;
33357;SDS011;19717;42.614;23.418;2023-07-29T10:18:11;0.40;;;0.40;;
33357;SDS011;19717;42.614;23.418;2023-07-29T10:20:37;1.00;;;1.00;;
33357;SDS011;19717;42.614;23.418;2023-07-29T10:23:05;0.40;;;0.40;;
33357;SDS011;19717;42.614;23.418;2023-07-29T10:25:37;0.73;;;0.43;;
33357;SDS011;19717;42.614;23.418;2023-07-29T10:28:05;0.40;;;0.40;;
33357;SDS011;19717;42.614;23.418;2023-07-29T10:30:31;0.40;;;0.40;;
33357;SDS011;19717;42.614;23.418;2023-07-29T10:32:58;0.63;;;0.40;;
33357;SDS011;19717;42.614;23.418;2023-07-29T10:35:27;0.40;;;0.40;;
33357;SDS011;19717;42.614;23.418;2023-07-29T10:37:53;0.40;;;0.40;;
33357;SDS011;19717;42.614;23.418;2023-07-29T10:40:20;0.40;;;0.40;;
33357;SDS011;19717;42.614;23.418;2023-07-29T10:43:03;0.40;;;0.40;;
33357;SDS011;19717;42.614;23.418;2023-07-29T10:45:37;0.40;;;0.40;;
33357;SDS011;19717;42.614;23.418;2023-07-29T10:48:06;1.23;;;0.30;;
33357;SDS011;19717;42.614;23.418;2023-07-29T10:50:33;0.30;;;0.30;;
33357;SDS011;19717;42.614;23.418;2023-07-29T10:53:00;0.40;;;0.40;;
33357;SDS011;19717;42.614;23.418;2023-07-29T10:55:30;0.50;;;0.50;;
33357;SDS011;19717;42.614;23.418;2023-07-29T11:00:36;0.60;;;0.40;;
33357;SDS011;19717;42.614;23.418;2023-07-29T11:03:03;0.40;;;0.40;;
33357;SDS011;19717;42.614;23.418;2023-07-29T11:05:49;0.30;;;0.30;;
33357;SDS011;19717;42.614;23.418;2023-07-29T11:08:16;0.30;;;0.30;;
33357;SDS011;19717;42.614;23.418;2023-07-29T11:10:43;0.65;;;0.40;;
33357;SDS011;19717;42.614;23.418;2023-07-29T11:13:09;0.40;;;0.40;;
33357;SDS011;19717;42.614;23.418;2023-07-29T11:15:37;0.52;;;0.30;;
33357;SDS011;19717;42.614;23.418;2023-07-29T11:18:04;0.30;;;0.30;;
33357;SDS011;19717;42.614;23.418;2023-07-29T11:20:33;0.30;;;0.30;;
33357;SDS011;19717;42.614;23.418;2023-07-29T11:23:03;0.40;;;0.40;;
33357;SDS011;19717;42.614;23.418;2023-07-29T11:25:30;0.40;;;0.40;;
33357;SDS011;19717;42.614;23.418;2023-07-29T11:27:59;0.30;;;0.30;;
33357;SDS011;19717;42.614;23.418;2023-07-29T11:30:25;0.32;;;0.32;;
33357;SDS011;19717;42.614;23.418;2023-07-29T11:32:56;0.30;;;0.30;;
33357;SDS011;19717;42.614;23.418;2023-07-29T11:35:22;0.57;;;0.57;;
33357;SDS011;19717;42.614;23.418;2023-07-29T11:37:49;0.38;;;0.38;;
33357;SDS011;19717;42.614;23.418;2023-07-29T11:40:19;0.85;;;0.40;;
33357;SDS011;19717;42.614;23.418;2023-07-29T11:42:46;0.30;;;0.30;;
33357;SDS011;19717;42.614;23.418;2023-07-29T11:45:13;0.30;;;0.30;;
33357;SDS011;19717;42.614;23.418;2023-07-29T11:47:39;0.40;;;0.40;;
33357;SDS011;19717;42.614;23.418;2023-07-29T11:50:09;0.50;;;0.50;;
33357;SDS011;19717;42.614;23.418;2023-07-29T11:52:37;0.35;;;0.35;;
33357;SDS011;19717;42.614;23.418;2023-07-29T11:55:03;0.30;;;0.30;;
33357;SDS011;19717;42.614;23.418;2023-07-29T11:57:30;0.40;;;0.40;;
33357;SDS011;19717;42.614;23.418;2023-07-29T11:59:57;0.40;;;0.40;;
33357;SDS011;19717;42.614;23.418;2023-07-29T12:02:23;0.40;;;0.40;;
33357;SDS011;19717;42.614;23.418;2023-07-29T12:04:50;0.50;;;0.50;;
33357;SDS011;19717;42.614;23.418;2023-07-29T12:07:17;1.65;;;0.50;;
33357;SDS011;19717;42.614;23.418;2023-07-29T12:09:43;0.40;;;0.40;;
33357;SDS011;19717;42.614;23.418;2023-07-29T12:12:11;0.30;;;0.30;;
33357;SDS011;19717;42.614;23.418;2023-07-29T12:14:37;0.30;;;0.30;;
33357;SDS011;19717;42.614;23.418;2023-07-29T12:17:04;0.40;;;0.40;;
33357;SDS011;19717;42.614;23.418;2023-07-29T12:19:40;0.30;;;0.30;;
33357;SDS011;19717;42.614;23.418;2023-07-29T12:22:07;0.40;;;0.40;;
33357;SDS011;19717;42.614;23.418;2023-07-29T12:24:35;0.40;;;0.40;;
33357;SDS011;19717;42.614;23.418;2023-07-29T12:27:01;0.30;;;0.30;;
33357;SDS011;19717;42.614;23.418;2023-07-29T12:29:27;0.40;;;0.40;;
33357;SDS011;19717;42.614;23.418;2023-07-29T12:31:59;0.30;;;0.30;;
33357;SDS011;19717;42.614;23.418;2023-07-29T12:34:26;0.30;;;0.30;;
33357;SDS011;19717;42.614;23.418;2023-07-29T12:36:53;0.40;;;0.40;;
33357;SDS011;19717;42.614;23.418;2023-07-29T12:41:50;0.82;;;0.45;;
33357;SDS011;19717;42.614;23.418;2023-07-29T12:44:16;0.30;;;0.30;;
33357;SDS011;19717;42.614;23.418;2023-07-29T12:46:42;0.30;;;0.30;;
33357;SDS011;19717;42.614;23.418;2023-07-29T12:49:08;0.40;;;0.40;;
33357;SDS011;19717;42.614;23.418;2023-07-29T12:51:34;0.40;;;0.40;;
33357;SDS011;19717;42.614;23.418;2023-07-29T12:54:01;0.40;;;0.40;;
33357;SDS011;19717;42.614;23.418;2023-07-29T12:56:28;0.32;;;0.32;;
33357;SDS011;19717;42.614;23.418;2023-07-29T12:58:55;0.30;;;0.30;;
33357;SDS011;19717;42.614;23.418;2023-07-29T13:01:22;0.30;;;0.30;;
33357;SDS011;19717;42.614;23.418;2023-07-29T13:03:48;0.40;;;0.40;;
33357;SDS011;19717;42.614;23.418;2023-07-29T13:06:14;0.38;;;0.38;;
33357;SDS011;19717;42.614;23.418;2023-07-29T13:08:41;0.40;;;0.40;;
33357;SDS011;19717;42.614;23.418;2023-07-29T13:11:07;0.30;;;0.30;;
33357;SDS011;19717;42.614;23.418;2023-07-29T13:13:33;0.35;;;0.35;;
33357;SDS011;19717;42.614;23.418;2023-07-29T13:15:59;0.30;;;0.30;;
33357;SDS011;19717;42.614;23.418;2023-07-29T13:18:26;0.30;;;0.30;;
33357;SDS011;19717;42.614;23.418;2023-07-29T13:20:53;0.40;;;0.40;;
33357;SDS011;19717;42.614;23.418;2023-07-29T13:23:20;0.95;;;0.30;;
33357;SDS011;19717;42.614;23.418;2023-07-29T13:25:46;0.40;;;0.40;;
33357;SDS011;19717;42.614;23.418;2023-07-29T13:28:12;0.40;;;0.40;;
33357;SDS011;19717;42.614;23.418;2023-07-29T13:30:38;0.73;;;0.40;;
33357;SDS011;19717;42.614;23.418;2023-07-29T13:33:05;2.92;;;0.40;;
33357;SDS011;19717;42.614;23.418;2023-07-29T13:35:31;0.40;;;0.40;;
33357;SDS011;19717;42.614;23.418;2023-07-29T13:37:57;0.77;;;0.40;;
33357;SDS011;19717;42.614;23.418;2023-07-29T13:40:23;0.40;;;0.40;;
33357;SDS011;19717;42.614;23.418;2023-07-29T13:42:49;1.10;;;0.40;;
33357;SDS011;19717;42.614;23.418;2023-07-29T13:45:15;0.38;;;0.30;;
33357;SDS011;19717;42.614;23.418;2023-07-29T13:47:41;0.32;;;0.32;;
33357;SDS011;19717;42.614;23.418;2023-07-29T13:50:07;0.57;;;0.40;;
33357;SDS011;19717;42.614;23.418;2023-07-29T13:52:33;0.40;;;0.40;;
33357;SDS011;19717;42.614;23.418;2023-07-29T13:54:59;0.40;;;0.40;;
33357;SDS011;19717;42.614;23.418;2023-07-29T13:57:25;0.40;;;0.40;;
33357;SDS011;19717;42.614;23.418;2023-07-29T13:59:51;0.40;;;0.40;;
33357;SDS011;19717;42.614;23.418;2023-07-29T14:02:17;0.52;;;0.40;;
33357;SDS011;19717;42.614;23.418;2023-07-29T14:04:43;0.30;;;0.30;;
33357;SDS011;19717;42.614;23.418;2023-07-29T14:07:09;1.20;;;0.38;;
33357;SDS011;19717;42.614;23.418;2023-07-29T14:09:35;1.20;;;0.40;;
33357;SDS011;19717;42.614;23.418;2023-07-29T14:12:03;0.40;;;0.40;;
33357;SDS011;19717;42.614;23.418;2023-07-29T14:14:29;0.40;;;0.40;;
33357;SDS011;19717;42.614;23.418;2023-07-29T14:16:55;0.40;;;0.40;;
33357;SDS011;19717;42.614;23.418;2023-07-29T14:19:21;0.40;;;0.40;;
33357;SDS011;19717;42.614;23.418;2023-07-29T14:21:48;0.40;;;0.40;;
33357;SDS011;19717;42.614;23.418;2023-07-29T14:24:14;0.40;;;0.40;;
33357;SDS011;19717;42.614;23.418;2023-07-29T14:26:41;0.30;;;0.30;;
33357;SDS011;19717;42.614;23.418;2023-07-29T14:29:07;0.35;;;0.35;;
33357;SDS011;19717;42.614;23.418;2023-07-29T14:31:33;0.50;;;0.50;;
33357;SDS011;19717;42.614;23.418;2023-07-29T14:33:59;0.40;;;0.40;;
33357;SDS011;19717;42.614;23.418;2023-07-29T14:36:25;0.30;;;0.30;;
33357;SDS011;19717;42.614;23.418;2023-07-29T14:38:51;0.40;;;0.40;;
33357;SDS011;19717;42.614;23.418;2023-07-29T14:41:17;1.67;;;0.40;;